Salt Lake City International Airport
KSLC : now visible

Airfield :











YOU CAN JOIN US ON...

 
LOGIN :

Register | Disclaimer

   EN    FR    IT 

 









Legend :    VFR   Marginal VFR   IFR   Intensive IFR   Very Intensive IFR
Visi :
Ceiling :
>= 8 km
>= 3000ft
5 to 8 km
1000 to 3000 ft
1500m to 5 km
500 to 1000 ft
800 to 1500m
200 to 500 ft
< 800m
< 200 ft
Symbols :   Thunderstorms  Fog  Heavy snow  Heavy precipitations  Wind > 20 kt






- Airport Elevation : 4227 ft
- IATA code : SLC


KSLC - Salt Lake City International

CURRENT METAR :
  • 170254Z 36009KT 10SM FEW075 FEW090 BKN120 17/07 A2990 RMK AO2 LTG DSNT NW SLP086 VIRGA CB DSNT NW SH DSNT NW-N T01720072 51020

EXPIRED METARs :
  • 170154Z 30008KT 10SM FEW075 BKN100 BKN180 BKN230 18/06 A2990 RMK AO2 SLP085 VIRGA CB DSNT E AND S T01830061
  • 170054Z 33015G23KT 10SM FEW075 FEW110 BKN150 BKN210 19/07 A2985 RMK AO2 LTG DSNT SW SLP070 VIRGA CB DSNT E AND SW T01890067

TAF KSLC
Valid from the 17 at 03:00 until the 18 at 06:00 UTC


170306Z 1703/1806 34008KT P6SM SCT120
FM170700 12006KT P6SM SCT150
FM171800 31008KT P6SM VCTS BKN100CB
KZLC FIR / North America



MET'MAP, your aeronautical weather chart ! - Copyright ORBIFLY December 2007 - Disclaimer

ORBIFLY MET'MAP TEAM :

Programming & Development : Alexandra Zaïnal
Concept & original design : Baudouin d'Aumeries
Assistance for programming : Marc-Olivier Méhu
Technical & hardware support : Manuel Goepfert

Contact : metmap@orbifly.com




SOURCES & CREDITS :

   NOAA       Earth
Advisory